Terminal Aerodrome Forecast
Issued by NWS

Home | Current Version | Previous Version | Text Only | Print | Product List | Glossary On
Versions: 1 2 3 4 5 6 7 8 9 10 11 12 13
000
FTUS45 KABQ 291100
TAFROW
TAF
KROW 291120Z 2912/3012 26007KT P6SM SKC
     FM291400 35011KT P6SM SKC
     FM291700 03011G21KT P6SM BKN250
     FM292100 08008KT P6SM BKN250=

USA.gov is the U.S. government's official web portal to all federal, state and local government web resources and services.